Andover, VT

10:39 PM EDT on July 04, 2015 (GMT -0400)
Goldthwaite Road | | Change Station
CLOSE
Current Station
Personal Weather Station
Location: Chester, VT
Elevation: 1227 ft
Nearby Weather Stations

Elev 1227 ft 43.27 °N, 72.65 °W | Updated 5 seconds ago

Overcast
Overcast
57.9 °F
Feels Like 57.9 °F
N
0.0
Wind Variable Wind from WSW
Gusts 0.0 mph

Today
High -- | Low -- °F
--% Chance of Precip.
Yesterday
High -- | Low -- °F
Precip. -- in
5:15 AM 8:33 PM
Waning Gibbous, 88% visible
Pressure 30.02 in
Visibility 3.0 miles
Clouds Mostly Cloudy 100 ft
Dew Point 54 °F
Humidity 87%
Rainfall 0.00 in
Snow Depth Not available.
UV 0 out of 12
Pollen 2.40 out of 12
Air Quality Not available.
Flu Activity Not available.
SPECI KVSF 050221Z AUTO 00000KT 3SM BR BKN001 14/14 A3002 RMK AO2 T01440139 TSNO

More Conditions Fewer Conditions

Pressure 30.02 in
Visibility 3.0 miles
Clouds Mostly Cloudy 100 ft
Dew Point 54 °F
Humidity 87%
Rainfall 0.00 in
Snow Depth Not available.
UV 0 out of 12
Pollen 2.40 out of 12
Air Quality Not available.
Flu Activity Not available.
SPECI KVSF 050221Z AUTO 00000KT 3SM BR BKN001 14/14 A3002 RMK AO2 T01440139 TSNO

More Conditions Fewer Conditions

10-Day Weather Forecast

×

Almanac

Astronomy

Jul. 04, 2015 Rise Set
Actual Time
Civil Twilight
Nautical Twilight
Astronomical Twilight
Moon
Length of Visible Light
Length of Day
Tomorrow will be .
, % of the Moon is Illuminated

Today's Extremes

State Highs State Lows

Community

WunderPhotos

Upload Photos

1,835,169 photos uploaded!

WunderBlogs® & News

Nearby

Air Quality

  Air Quality AQ Index Pollutant
Not available.

Snow Depth

Station Depth Elevation

Earthquake Activity

City Distance Mag. Time & Date
Minimum magnitude displayed is 2.5.

Coastal Water Temperatures

Place Temperature

Stations

Nearby Weather Stations

Station Location Temp. Windchill Dew Point Humidity Wind Precip. Elev Updated Type